sensor_id;sensor_type;location;lat;lon;timestamp;pressure;altitude;pressure_sealevel;temperature;humidity
34235;BME280;20500;49.856;20.290;2023-02-02T00:01:57;97973.02;;;2.43;78.47
34235;BME280;20500;49.856;20.290;2023-02-02T00:05:05;97974.27;;;2.46;78.59
34235;BME280;20500;49.856;20.290;2023-02-02T00:08:11;97974.76;;;2.48;78.49
34235;BME280;20500;49.856;20.290;2023-02-02T00:11:18;97968.55;;;2.49;78.52
34235;BME280;20500;49.856;20.290;2023-02-02T00:14:25;97972.05;;;2.52;78.51
34235;BME280;20500;49.856;20.290;2023-02-02T00:17:31;97971.99;;;2.54;78.39
34235;BME280;20500;49.856;20.290;2023-02-02T00:20:36;97979.34;;;2.56;78.53
34235;BME280;20500;49.856;20.290;2023-02-02T00:23:42;97982.50;;;2.56;78.52
34235;BME280;20500;49.856;20.290;2023-02-02T00:26:50;97983.31;;;2.59;78.64
34235;BME280;20500;49.856;20.290;2023-02-02T00:29:57;97986.05;;;2.60;78.55
34235;BME280;20500;49.856;20.290;2023-02-02T00:33:01;97992.24;;;2.59;78.44
34235;BME280;20500;49.856;20.290;2023-02-02T00:36:08;97998.21;;;2.58;78.47
34235;BME280;20500;49.856;20.290;2023-02-02T00:39:17;98004.73;;;2.59;78.43
34235;BME280;20500;49.856;20.290;2023-02-02T00:42:24;98014.06;;;2.58;78.61
34235;BME280;20500;49.856;20.290;2023-02-02T00:45:28;98012.60;;;2.53;78.68
34235;BME280;20500;49.856;20.290;2023-02-02T00:48:35;98008.41;;;2.46;78.66
34235;BME280;20500;49.856;20.290;2023-02-02T00:51:41;98007.95;;;2.38;78.66
34235;BME280;20500;49.856;20.290;2023-02-02T00:54:47;98011.77;;;2.31;78.77
34235;BME280;20500;49.856;20.290;2023-02-02T00:57:54;98014.68;;;2.27;78.92
34235;BME280;20500;49.856;20.290;2023-02-02T01:00:58;98012.44;;;2.23;78.93
34235;BME280;20500;49.856;20.290;2023-02-02T01:04:04;98014.48;;;2.18;79.03
34235;BME280;20500;49.856;20.290;2023-02-02T01:07:11;98014.52;;;2.16;79.08
34235;BME280;20500;49.856;20.290;2023-02-02T01:10:17;98014.09;;;2.15;79.09
34235;BME280;20500;49.856;20.290;2023-02-02T01:13:22;98013.31;;;2.16;79.16
34235;BME280;20500;49.856;20.290;2023-02-02T01:16:28;98017.16;;;2.15;79.19
34235;BME280;20500;49.856;20.290;2023-02-02T01:19:32;98018.80;;;2.11;79.17
34235;BME280;20500;49.856;20.290;2023-02-02T01:22:39;98022.27;;;2.05;79.00
34235;BME280;20500;49.856;20.290;2023-02-02T01:25:51;98028.75;;;2.01;79.13
34235;BME280;20500;49.856;20.290;2023-02-02T01:28:57;98030.85;;;2.01;79.18
34235;BME280;20500;49.856;20.290;2023-02-02T01:32:02;98041.35;;;1.99;79.15
34235;BME280;20500;49.856;20.290;2023-02-02T01:35:09;98046.49;;;1.93;79.19
34235;BME280;20500;49.856;20.290;2023-02-02T01:38:16;98043.78;;;1.86;79.08
34235;BME280;20500;49.856;20.290;2023-02-02T01:41:22;98044.10;;;1.80;79.27
34235;BME280;20500;49.856;20.290;2023-02-02T01:45:03;98044.23;;;1.75;79.19
34235;BME280;20500;49.856;20.290;2023-02-02T01:48:11;98041.83;;;1.70;79.30
34235;BME280;20500;49.856;20.290;2023-02-02T01:51:20;98039.98;;;1.66;79.31
34235;BME280;20500;49.856;20.290;2023-02-02T01:54:30;98043.39;;;1.62;79.32
34235;BME280;20500;49.856;20.290;2023-02-02T01:57:41;98048.59;;;1.60;79.31
34235;BME280;20500;49.856;20.290;2023-02-02T02:00:48;98043.18;;;1.57;79.50
34235;BME280;20500;49.856;20.290;2023-02-02T02:03:56;98046.51;;;1.54;79.40
34235;BME280;20500;49.856;20.290;2023-02-02T02:07:03;98048.86;;;1.52;79.60
34235;BME280;20500;49.856;20.290;2023-02-02T02:10:10;98048.77;;;1.49;79.52
34235;BME280;20500;49.856;20.290;2023-02-02T02:13:17;98051.98;;;1.49;79.76
34235;BME280;20500;49.856;20.290;2023-02-02T02:16:31;98060.19;;;1.51;79.91
34235;BME280;20500;49.856;20.290;2023-02-02T02:24:10;98066.60;;;1.51;79.74
34235;BME280;20500;49.856;20.290;2023-02-02T02:28:00;98076.65;;;1.54;79.67
34235;BME280;20500;49.856;20.290;2023-02-02T02:34:45;98085.52;;;1.57;79.91
34235;BME280;20500;49.856;20.290;2023-02-02T02:37:58;98086.40;;;1.59;79.97
34235;BME280;20500;49.856;20.290;2023-02-02T02:41:09;98093.34;;;1.59;79.97
34235;BME280;20500;49.856;20.290;2023-02-02T02:44:17;98093.00;;;1.59;79.93
34235;BME280;20500;49.856;20.290;2023-02-02T02:47:25;98100.58;;;1.60;80.12
34235;BME280;20500;49.856;20.290;2023-02-02T02:50:33;98097.86;;;1.61;79.94
34235;BME280;20500;49.856;20.290;2023-02-02T02:53:38;98103.53;;;1.59;80.02
34235;BME280;20500;49.856;20.290;2023-02-02T02:56:58;98106.84;;;1.60;80.13
34235;BME280;20500;49.856;20.290;2023-02-02T03:00:20;98104.39;;;1.60;80.31
34235;BME280;20500;49.856;20.290;2023-02-02T03:03:44;98106.11;;;1.59;80.30
34235;BME280;20500;49.856;20.290;2023-02-02T03:06:59;98100.67;;;1.55;80.29
34235;BME280;20500;49.856;20.290;2023-02-02T03:10:08;98107.06;;;1.54;80.27
34235;BME280;20500;49.856;20.290;2023-02-02T03:13:17;98110.97;;;1.53;80.48
34235;BME280;20500;49.856;20.290;2023-02-02T03:16:24;98110.95;;;1.51;80.57
34235;BME280;20500;49.856;20.290;2023-02-02T03:19:30;98115.41;;;1.51;80.66
34235;BME280;20500;49.856;20.290;2023-02-02T03:22:34;98119.80;;;1.52;80.73
34235;BME280;20500;49.856;20.290;2023-02-02T03:25:41;98120.00;;;1.54;80.73
34235;BME280;20500;49.856;20.290;2023-02-02T03:28:51;98124.20;;;1.53;80.73
34235;BME280;20500;49.856;20.290;2023-02-02T03:31:58;98127.27;;;1.51;80.61
34235;BME280;20500;49.856;20.290;2023-02-02T03:35:03;98131.82;;;1.50;80.61
34235;BME280;20500;49.856;20.290;2023-02-02T03:38:09;98130.98;;;1.45;80.77
34235;BME280;20500;49.856;20.290;2023-02-02T03:41:16;98138.89;;;1.45;80.81
34235;BME280;20500;49.856;20.290;2023-02-02T03:44:23;98146.66;;;1.46;80.81
34235;BME280;20500;49.856;20.290;2023-02-02T03:47:30;98146.20;;;1.45;81.00
34235;BME280;20500;49.856;20.290;2023-02-02T03:50:37;98144.84;;;1.46;81.06
34235;BME280;20500;49.856;20.290;2023-02-02T03:53:43;98152.52;;;1.48;81.14
34235;BME280;20500;49.856;20.290;2023-02-02T03:56:51;98151.98;;;1.50;81.17
34235;BME280;20500;49.856;20.290;2023-02-02T03:59:57;98151.17;;;1.53;81.28
34235;BME280;20500;49.856;20.290;2023-02-02T04:03:02;98149.72;;;1.57;81.23
34235;BME280;20500;49.856;20.290;2023-02-02T04:06:09;98148.20;;;1.60;81.32
34235;BME280;20500;49.856;20.290;2023-02-02T04:09:15;98142.14;;;1.60;81.22
34235;BME280;20500;49.856;20.290;2023-02-02T04:12:21;98151.21;;;1.58;81.24
34235;BME280;20500;49.856;20.290;2023-02-02T04:15:27;98155.14;;;1.58;81.22
34235;BME280;20500;49.856;20.290;2023-02-02T04:18:32;98163.33;;;1.57;81.37
34235;BME280;20500;49.856;20.290;2023-02-02T04:21:38;98160.96;;;1.57;81.36
34235;BME280;20500;49.856;20.290;2023-02-02T04:24:45;98162.04;;;1.57;81.37
34235;BME280;20500;49.856;20.290;2023-02-02T04:27:49;98158.71;;;1.58;81.54
34235;BME280;20500;49.856;20.290;2023-02-02T04:30:57;98163.55;;;1.58;81.62
34235;BME280;20500;49.856;20.290;2023-02-02T04:34:03;98167.86;;;1.60;81.62
34235;BME280;20500;49.856;20.290;2023-02-02T04:37:10;98169.71;;;1.61;81.58
34235;BME280;20500;49.856;20.290;2023-02-02T04:40:17;98167.59;;;1.63;81.51
34235;BME280;20500;49.856;20.290;2023-02-02T04:43:23;98168.09;;;1.63;81.48
34235;BME280;20500;49.856;20.290;2023-02-02T04:46:28;98167.27;;;1.66;81.66
34235;BME280;20500;49.856;20.290;2023-02-02T04:49:34;98168.36;;;1.67;81.54
34235;BME280;20500;49.856;20.290;2023-02-02T04:52:40;98171.35;;;1.68;81.67
34235;BME280;20500;49.856;20.290;2023-02-02T04:55:46;98175.19;;;1.71;81.78
34235;BME280;20500;49.856;20.290;2023-02-02T04:58:52;98177.42;;;1.72;81.78
34235;BME280;20500;49.856;20.290;2023-02-02T05:01:59;98171.48;;;1.72;81.71
34235;BME280;20500;49.856;20.290;2023-02-02T05:05:09;98171.76;;;1.73;81.76
34235;BME280;20500;49.856;20.290;2023-02-02T05:08:15;98174.30;;;1.73;81.91
34235;BME280;20500;49.856;20.290;2023-02-02T05:11:22;98171.66;;;1.74;81.80
34235;BME280;20500;49.856;20.290;2023-02-02T05:14:28;98170.95;;;1.76;81.76
34235;BME280;20500;49.856;20.290;2023-02-02T05:17:35;98172.34;;;1.78;81.67
34235;BME280;20500;49.856;20.290;2023-02-02T05:20:39;98173.13;;;1.79;81.72
34235;BME280;20500;49.856;20.290;2023-02-02T05:23:46;98176.83;;;1.80;81.79
34235;BME280;20500;49.856;20.290;2023-02-02T05:26:52;98177.85;;;1.80;81.67
34235;BME280;20500;49.856;20.290;2023-02-02T05:30:03;98179.96;;;1.81;81.76
34235;BME280;20500;49.856;20.290;2023-02-02T05:33:09;98177.58;;;1.81;81.69
34235;BME280;20500;49.856;20.290;2023-02-02T05:36:16;98179.56;;;1.83;81.82
34235;BME280;20500;49.856;20.290;2023-02-02T05:39:22;98178.33;;;1.85;81.82
34235;BME280;20500;49.856;20.290;2023-02-02T05:42:29;98175.58;;;1.85;81.86
34235;BME280;20500;49.856;20.290;2023-02-02T05:45:33;98174.17;;;1.87;81.83
34235;BME280;20500;49.856;20.290;2023-02-02T05:48:39;98169.19;;;1.90;81.74
34235;BME280;20500;49.856;20.290;2023-02-02T05:51:45;98171.55;;;1.90;81.71
34235;BME280;20500;49.856;20.290;2023-02-02T05:54:50;98172.05;;;1.90;81.83
34235;BME280;20500;49.856;20.290;2023-02-02T05:57:56;98170.90;;;1.91;81.82
34235;BME280;20500;49.856;20.290;2023-02-02T06:01:01;98164.89;;;1.90;81.69
34235;BME280;20500;49.856;20.290;2023-02-02T06:04:07;98164.66;;;1.89;81.72
34235;BME280;20500;49.856;20.290;2023-02-02T06:07:14;98163.96;;;1.89;81.66
34235;BME280;20500;49.856;20.290;2023-02-02T06:10:18;98165.00;;;1.89;81.64
34235;BME280;20500;49.856;20.290;2023-02-02T06:13:26;98168.23;;;1.89;81.70
34235;BME280;20500;49.856;20.290;2023-02-02T06:16:32;98173.47;;;1.90;81.84
34235;BME280;20500;49.856;20.290;2023-02-02T06:19:38;98175.27;;;1.92;81.71
34235;BME280;20500;49.856;20.290;2023-02-02T06:22:44;98178.52;;;1.95;81.68
34235;BME280;20500;49.856;20.290;2023-02-02T06:25:52;98177.76;;;1.98;81.61
34235;BME280;20500;49.856;20.290;2023-02-02T06:28:56;98178.15;;;2.01;81.52
34235;BME280;20500;49.856;20.290;2023-02-02T06:32:03;98175.40;;;2.04;81.36
34235;BME280;20500;49.856;20.290;2023-02-02T06:35:10;98175.31;;;2.08;81.37
34235;BME280;20500;49.856;20.290;2023-02-02T06:38:16;98175.19;;;2.11;81.16
34235;BME280;20500;49.856;20.290;2023-02-02T06:41:21;98168.17;;;2.14;81.39
34235;BME280;20500;49.856;20.290;2023-02-02T06:44:28;98162.06;;;2.17;81.24
34235;BME280;20500;49.856;20.290;2023-02-02T06:47:34;98160.09;;;2.21;81.08
34235;BME280;20500;49.856;20.290;2023-02-02T06:50:40;98155.23;;;2.25;81.13
34235;BME280;20500;49.856;20.290;2023-02-02T06:53:47;98155.83;;;2.30;81.07
34235;BME280;20500;49.856;20.290;2023-02-02T06:56:54;98157.16;;;2.36;80.94
34235;BME280;20500;49.856;20.290;2023-02-02T06:59:58;98151.20;;;2.40;80.75
34235;BME280;20500;49.856;20.290;2023-02-02T07:03:05;98155.23;;;2.45;80.94
34235;BME280;20500;49.856;20.290;2023-02-02T07:06:16;98158.33;;;2.50;80.82
34235;BME280;20500;49.856;20.290;2023-02-02T07:09:23;98159.31;;;2.54;80.80
34235;BME280;20500;49.856;20.290;2023-02-02T07:12:29;98154.33;;;2.59;80.62
34235;BME280;20500;49.856;20.290;2023-02-02T07:15:36;98160.55;;;2.63;80.68
34235;BME280;20500;49.856;20.290;2023-02-02T07:18:43;98165.05;;;2.68;80.62
34235;BME280;20500;49.856;20.290;2023-02-02T07:21:52;98156.23;;;2.74;80.57
34235;BME280;20500;49.856;20.290;2023-02-02T07:24:56;98152.23;;;2.80;80.62
34235;BME280;20500;49.856;20.290;2023-02-02T07:28:03;98155.02;;;2.86;80.39
34235;BME280;20500;49.856;20.290;2023-02-02T07:31:17;98157.78;;;2.90;80.50
34235;BME280;20500;49.856;20.290;2023-02-02T07:34:24;98151.24;;;2.93;80.35
34235;BME280;20500;49.856;20.290;2023-02-02T07:37:30;98153.65;;;2.94;80.15
34235;BME280;20500;49.856;20.290;2023-02-02T07:40:36;98154.22;;;2.96;80.22
34235;BME280;20500;49.856;20.290;2023-02-02T07:43:41;98149.02;;;2.96;80.27
34235;BME280;20500;49.856;20.290;2023-02-02T07:46:48;98146.40;;;2.95;80.10
34235;BME280;20500;49.856;20.290;2023-02-02T07:49:54;98150.70;;;2.97;79.93
34235;BME280;20500;49.856;20.290;2023-02-02T07:53:00;98152.55;;;2.98;79.98
34235;BME280;20500;49.856;20.290;2023-02-02T07:56:06;98145.01;;;3.00;79.89
34235;BME280;20500;49.856;20.290;2023-02-02T07:59:13;98146.60;;;3.02;79.90
34235;BME280;20500;49.856;20.290;2023-02-02T08:02:19;98146.85;;;3.04;79.96
34235;BME280;20500;49.856;20.290;2023-02-02T08:05:24;98142.88;;;3.08;79.80
34235;BME280;20500;49.856;20.290;2023-02-02T08:08:31;98139.66;;;3.13;79.99
34235;BME280;20500;49.856;20.290;2023-02-02T08:11:38;98137.41;;;3.20;79.81
34235;BME280;20500;49.856;20.290;2023-02-02T08:14:44;98137.67;;;3.24;79.82
34235;BME280;20500;49.856;20.290;2023-02-02T08:17:50;98140.80;;;3.23;79.65
34235;BME280;20500;49.856;20.290;2023-02-02T08:20:58;98144.64;;;3.19;79.44
34235;BME280;20500;49.856;20.290;2023-02-02T08:24:05;98148.27;;;3.13;79.49
34235;BME280;20500;49.856;20.290;2023-02-02T08:27:11;98150.08;;;3.08;79.50
34235;BME280;20500;49.856;20.290;2023-02-02T08:30:16;98154.28;;;3.00;79.48
34235;BME280;20500;49.856;20.290;2023-02-02T08:33:23;98151.38;;;2.93;79.41
34235;BME280;20500;49.856;20.290;2023-02-02T08:36:28;98148.96;;;2.89;79.57
34235;BME280;20500;49.856;20.290;2023-02-02T08:39:34;98143.48;;;2.84;79.55
34235;BME280;20500;49.856;20.290;2023-02-02T08:42:41;98143.45;;;2.80;79.45
34235;BME280;20500;49.856;20.290;2023-02-02T08:45:47;98142.98;;;2.77;79.57
34235;BME280;20500;49.856;20.290;2023-02-02T08:49:10;98142.22;;;2.78;79.59
34235;BME280;20500;49.856;20.290;2023-02-02T08:52:17;98142.58;;;2.76;79.47
34235;BME280;20500;49.856;20.290;2023-02-02T08:55:23;98137.62;;;2.74;79.61
34235;BME280;20500;49.856;20.290;2023-02-02T08:58:30;98129.64;;;2.75;79.56
34235;BME280;20500;49.856;20.290;2023-02-02T09:01:37;98132.20;;;2.74;79.46
34235;BME280;20500;49.856;20.290;2023-02-02T09:04:42;98140.57;;;2.73;79.59
34235;BME280;20500;49.856;20.290;2023-02-02T09:07:49;98138.95;;;2.71;79.55
34235;BME280;20500;49.856;20.290;2023-02-02T09:10:55;98139.51;;;2.69;79.52
34235;BME280;20500;49.856;20.290;2023-02-02T09:14:02;98140.77;;;2.69;79.67
34235;BME280;20500;49.856;20.290;2023-02-02T09:17:10;98139.12;;;2.71;79.77
34235;BME280;20500;49.856;20.290;2023-02-02T09:20:15;98130.95;;;2.79;79.80
34235;BME280;20500;49.856;20.290;2023-02-02T09:23:24;98140.88;;;2.86;79.64
34235;BME280;20500;49.856;20.290;2023-02-02T09:26:31;98141.61;;;2.89;79.63
34235;BME280;20500;49.856;20.290;2023-02-02T09:29:35;98137.09;;;2.91;79.65
34235;BME280;20500;49.856;20.290;2023-02-02T09:32:42;98129.20;;;2.93;79.66
34235;BME280;20500;49.856;20.290;2023-02-02T09:35:49;98128.70;;;2.94;79.69
34235;BME280;20500;49.856;20.290;2023-02-02T09:38:55;98135.27;;;2.95;79.64
34235;BME280;20500;49.856;20.290;2023-02-02T09:42:11;98138.05;;;2.96;79.62
34235;BME280;20500;49.856;20.290;2023-02-02T09:45:27;98129.71;;;2.99;79.70
34235;BME280;20500;49.856;20.290;2023-02-02T09:48:42;98130.84;;;3.01;79.71
34235;BME280;20500;49.856;20.290;2023-02-02T09:51:55;98134.07;;;3.05;79.49
34235;BME280;20500;49.856;20.290;2023-02-02T09:55:09;98148.81;;;3.10;79.57
34235;BME280;20500;49.856;20.290;2023-02-02T09:58:20;98137.35;;;3.14;79.69
34235;BME280;20500;49.856;20.290;2023-02-02T10:01:32;98135.70;;;3.19;79.58
34235;BME280;20500;49.856;20.290;2023-02-02T10:04:40;98146.20;;;3.23;79.53
34235;BME280;20500;49.856;20.290;2023-02-02T10:07:52;98144.77;;;3.23;79.58
34235;BME280;20500;49.856;20.290;2023-02-02T10:11:04;98148.10;;;3.22;79.54
34235;BME280;20500;49.856;20.290;2023-02-02T10:14:25;98154.77;;;3.23;79.61
34235;BME280;20500;49.856;20.290;2023-02-02T10:17:39;98156.73;;;3.23;79.49
34235;BME280;20500;49.856;20.290;2023-02-02T10:20:53;98160.33;;;3.23;79.55
34235;BME280;20500;49.856;20.290;2023-02-02T10:24:03;98163.73;;;3.20;79.41
34235;BME280;20500;49.856;20.290;2023-02-02T10:27:14;98167.68;;;3.16;79.60
34235;BME280;20500;49.856;20.290;2023-02-02T10:30:27;98173.25;;;3.14;79.72
34235;BME280;20500;49.856;20.290;2023-02-02T10:33:39;98177.30;;;3.12;79.67
34235;BME280;20500;49.856;20.290;2023-02-02T10:36:55;98181.20;;;3.07;79.57
34235;BME280;20500;49.856;20.290;2023-02-02T10:40:16;98187.35;;;3.03;79.57
34235;BME280;20500;49.856;20.290;2023-02-02T10:43:40;98188.70;;;2.98;79.70
34235;BME280;20500;49.856;20.290;2023-02-02T10:46:54;98192.29;;;2.95;79.81
34235;BME280;20500;49.856;20.290;2023-02-02T10:50:16;98193.98;;;2.88;79.84
34235;BME280;20500;49.856;20.290;2023-02-02T10:53:25;98197.30;;;2.80;79.59
34235;BME280;20500;49.856;20.290;2023-02-02T10:56:36;98199.48;;;2.73;79.72
34235;BME280;20500;49.856;20.290;2023-02-02T10:59:53;98199.67;;;2.68;79.78
34235;BME280;20500;49.856;20.290;2023-02-02T11:03:02;98198.83;;;2.60;79.81
34235;BME280;20500;49.856;20.290;2023-02-02T11:06:13;98199.11;;;2.57;79.89
34235;BME280;20500;49.856;20.290;2023-02-02T11:09:41;98209.55;;;2.60;79.91
34235;BME280;20500;49.856;20.290;2023-02-02T11:12:48;98216.89;;;2.60;79.95
34235;BME280;20500;49.856;20.290;2023-02-02T11:16:23;98218.11;;;2.57;79.93
34235;BME280;20500;49.856;20.290;2023-02-02T11:19:42;98220.06;;;2.54;80.11
34235;BME280;20500;49.856;20.290;2023-02-02T11:23:00;98218.55;;;2.54;80.18
34235;BME280;20500;49.856;20.290;2023-02-02T11:26:07;98224.84;;;2.54;80.05
34235;BME280;20500;49.856;20.290;2023-02-02T11:29:17;98225.27;;;2.52;80.11
34235;BME280;20500;49.856;20.290;2023-02-02T11:32:30;98227.70;;;2.49;80.08
34235;BME280;20500;49.856;20.290;2023-02-02T11:35:36;98224.77;;;2.48;80.18
34235;BME280;20500;49.856;20.290;2023-02-02T11:39:16;98229.69;;;2.45;80.12
34235;BME280;20500;49.856;20.290;2023-02-02T11:42:25;98236.66;;;2.41;80.16
34235;BME280;20500;49.856;20.290;2023-02-02T11:45:35;98239.41;;;2.41;80.23
34235;BME280;20500;49.856;20.290;2023-02-02T11:48:48;98237.79;;;2.41;80.33
34235;BME280;20500;49.856;20.290;2023-02-02T11:52:00;98241.27;;;2.44;80.33
34235;BME280;20500;49.856;20.290;2023-02-02T11:55:16;98243.75;;;2.46;80.16
34235;BME280;20500;49.856;20.290;2023-02-02T11:58:25;98249.50;;;2.46;80.35
34235;BME280;20500;49.856;20.290;2023-02-02T12:01:34;98254.47;;;2.46;80.36
34235;BME280;20500;49.856;20.290;2023-02-02T12:04:41;98256.19;;;2.51;80.45
34235;BME280;20500;49.856;20.290;2023-02-02T12:07:47;98262.14;;;2.54;80.60
34235;BME280;20500;49.856;20.290;2023-02-02T12:10:58;98265.13;;;2.56;80.65
34235;BME280;20500;49.856;20.290;2023-02-02T12:14:16;98269.64;;;2.58;80.65
34235;BME280;20500;49.856;20.290;2023-02-02T12:17:35;98264.17;;;2.58;80.53
34235;BME280;20500;49.856;20.290;2023-02-02T12:20:47;98263.12;;;2.60;80.55
34235;BME280;20500;49.856;20.290;2023-02-02T12:24:08;98269.42;;;2.60;80.58
34235;BME280;20500;49.856;20.290;2023-02-02T12:27:24;98270.38;;;2.59;80.70
34235;BME280;20500;49.856;20.290;2023-02-02T12:30:41;98272.55;;;2.61;80.60
34235;BME280;20500;49.856;20.290;2023-02-02T12:33:56;98276.52;;;2.62;80.90
34235;BME280;20500;49.856;20.290;2023-02-02T12:37:15;98281.80;;;2.65;80.84
34235;BME280;20500;49.856;20.290;2023-02-02T12:40:45;98280.77;;;2.68;80.84
34235;BME280;20500;49.856;20.290;2023-02-02T12:44:01;98287.05;;;2.68;80.79
34235;BME280;20500;49.856;20.290;2023-02-02T12:47:16;98289.11;;;2.67;80.85
34235;BME280;20500;49.856;20.290;2023-02-02T12:50:30;98294.38;;;2.66;80.74
34235;BME280;20500;49.856;20.290;2023-02-02T12:53:58;98300.94;;;2.67;80.76
34235;BME280;20500;49.856;20.290;2023-02-02T12:57:35;98303.67;;;2.66;80.76
34235;BME280;20500;49.856;20.290;2023-02-02T13:04:29;98311.05;;;2.70;81.02
34235;BME280;20500;49.856;20.290;2023-02-02T13:07:57;98316.75;;;2.72;81.10
34235;BME280;20500;49.856;20.290;2023-02-02T13:11:09;98326.52;;;2.75;80.85
34235;BME280;20500;49.856;20.290;2023-02-02T13:14:36;98333.25;;;2.74;80.79
34235;BME280;20500;49.856;20.290;2023-02-02T13:17:47;98334.94;;;2.77;80.96
34235;BME280;20500;49.856;20.290;2023-02-02T13:20:57;98339.48;;;2.79;80.96
34235;BME280;20500;49.856;20.290;2023-02-02T13:24:10;98344.15;;;2.81;80.88
34235;BME280;20500;49.856;20.290;2023-02-02T13:27:21;98347.38;;;2.83;80.89
34235;BME280;20500;49.856;20.290;2023-02-02T13:30:31;98355.23;;;2.87;80.94
34235;BME280;20500;49.856;20.290;2023-02-02T13:33:40;98366.93;;;2.86;80.82
34235;BME280;20500;49.856;20.290;2023-02-02T13:36:53;98370.91;;;2.86;80.84
34235;BME280;20500;49.856;20.290;2023-02-02T13:40:03;98372.25;;;2.89;80.92
34235;BME280;20500;49.856;20.290;2023-02-02T13:43:26;98373.71;;;2.94;81.07
34235;BME280;20500;49.856;20.290;2023-02-02T13:46:40;98380.20;;;3.00;81.04
34235;BME280;20500;49.856;20.290;2023-02-02T13:49:54;98385.34;;;3.03;80.93
34235;BME280;20500;49.856;20.290;2023-02-02T13:53:23;98392.70;;;3.05;80.94
34235;BME280;20500;49.856;20.290;2023-02-02T13:56:50;98396.97;;;3.06;80.67
34235;BME280;20500;49.856;20.290;2023-02-02T14:00:10;98406.52;;;3.03;80.65
34235;BME280;20500;49.856;20.290;2023-02-02T14:03:35;98407.48;;;3.04;81.00
34235;BME280;20500;49.856;20.290;2023-02-02T14:06:55;98414.39;;;3.07;81.02
34235;BME280;20500;49.856;20.290;2023-02-02T14:10:02;98414.86;;;3.10;81.02
34235;BME280;20500;49.856;20.290;2023-02-02T14:13:16;98419.80;;;3.12;80.94
34235;BME280;20500;49.856;20.290;2023-02-02T14:16:50;98420.34;;;3.16;80.98
34235;BME280;20500;49.856;20.290;2023-02-02T14:20:00;98433.81;;;3.19;80.92
34235;BME280;20500;49.856;20.290;2023-02-02T14:26:53;98453.08;;;3.18;80.81
34235;BME280;20500;49.856;20.290;2023-02-02T14:30:02;98458.55;;;3.17;80.77
34235;BME280;20500;49.856;20.290;2023-02-02T14:33:38;98465.66;;;3.16;80.63
34235;BME280;20500;49.856;20.290;2023-02-02T14:37:01;98465.77;;;3.15;80.68
34235;BME280;20500;49.856;20.290;2023-02-02T14:40:33;98468.23;;;3.14;80.60
34235;BME280;20500;49.856;20.290;2023-02-02T14:43:47;98466.85;;;3.13;80.72
34235;BME280;20500;49.856;20.290;2023-02-02T14:46:55;98471.88;;;3.13;80.52
34235;BME280;20500;49.856;20.290;2023-02-02T14:50:03;98483.31;;;3.12;80.69
34235;BME280;20500;49.856;20.290;2023-02-02T14:53:25;98492.40;;;3.12;80.74
34235;BME280;20500;49.856;20.290;2023-02-02T14:56:44;98494.14;;;3.14;80.68
34235;BME280;20500;49.856;20.290;2023-02-02T14:59:54;98502.58;;;3.13;80.61
34235;BME280;20500;49.856;20.290;2023-02-02T15:03:32;98506.11;;;3.11;80.56
34235;BME280;20500;49.856;20.290;2023-02-02T15:06:40;98512.91;;;3.10;80.53
34235;BME280;20500;49.856;20.290;2023-02-02T15:09:47;98518.77;;;3.10;80.48
34235;BME280;20500;49.856;20.290;2023-02-02T15:12:51;98524.11;;;3.11;80.43
34235;BME280;20500;49.856;20.290;2023-02-02T15:16:14;98530.64;;;3.12;80.29
34235;BME280;20500;49.856;20.290;2023-02-02T15:19:31;98538.08;;;3.11;80.42
34235;BME280;20500;49.856;20.290;2023-02-02T15:22:44;98544.33;;;3.11;80.42
34235;BME280;20500;49.856;20.290;2023-02-02T15:25:55;98546.91;;;3.10;80.39
34235;BME280;20500;49.856;20.290;2023-02-02T15:29:12;98557.40;;;3.11;80.33
34235;BME280;20500;49.856;20.290;2023-02-02T15:32:24;98561.77;;;3.12;80.34
34235;BME280;20500;49.856;20.290;2023-02-02T15:35:32;98564.87;;;3.12;80.19
34235;BME280;20500;49.856;20.290;2023-02-02T15:38:43;98572.02;;;3.12;80.25
34235;BME280;20500;49.856;20.290;2023-02-02T15:41:52;98576.08;;;3.13;80.26
34235;BME280;20500;49.856;20.290;2023-02-02T15:45:36;98580.23;;;3.14;80.16
34235;BME280;20500;49.856;20.290;2023-02-02T15:48:48;98596.58;;;3.12;80.07
34235;BME280;20500;49.856;20.290;2023-02-02T15:52:20;98604.15;;;3.10;80.08
34235;BME280;20500;49.856;20.290;2023-02-02T15:55:33;98610.27;;;3.10;80.12
34235;BME280;20500;49.856;20.290;2023-02-02T15:58:40;98621.38;;;3.10;80.13
34235;BME280;20500;49.856;20.290;2023-02-02T16:01:59;98623.16;;;3.08;80.05
34235;BME280;20500;49.856;20.290;2023-02-02T16:05:26;98628.34;;;3.06;79.97
34235;BME280;20500;49.856;20.290;2023-02-02T16:08:43;98630.54;;;3.04;79.72
34235;BME280;20500;49.856;20.290;2023-02-02T16:11:50;98637.83;;;3.03;79.87
34235;BME280;20500;49.856;20.290;2023-02-02T16:14:57;98647.90;;;3.02;79.92
34235;BME280;20500;49.856;20.290;2023-02-02T16:18:09;98652.91;;;3.02;79.88
34235;BME280;20500;49.856;20.290;2023-02-02T16:21:22;98658.93;;;3.03;79.94
34235;BME280;20500;49.856;20.290;2023-02-02T16:24:32;98667.30;;;3.04;79.81
34235;BME280;20500;49.856;20.290;2023-02-02T16:27:42;98671.70;;;3.04;79.66
34235;BME280;20500;49.856;20.290;2023-02-02T16:30:52;98676.76;;;3.02;79.64
34235;BME280;20500;49.856;20.290;2023-02-02T16:33:59;98689.10;;;2.99;79.58
34235;BME280;20500;49.856;20.290;2023-02-02T16:37:11;98706.26;;;2.97;79.51
34235;BME280;20500;49.856;20.290;2023-02-02T16:40:23;98715.07;;;2.95;79.10
34235;BME280;20500;49.856;20.290;2023-02-02T16:43:30;98722.42;;;2.93;79.06
34235;BME280;20500;49.856;20.290;2023-02-02T16:46:42;98726.02;;;2.91;78.91
34235;BME280;20500;49.856;20.290;2023-02-02T16:49:49;98734.21;;;2.89;78.80
34235;BME280;20500;49.856;20.290;2023-02-02T16:52:59;98740.20;;;2.87;78.73
34235;BME280;20500;49.856;20.290;2023-02-02T16:56:07;98743.31;;;2.84;78.73
34235;BME280;20500;49.856;20.290;2023-02-02T16:59:20;98743.45;;;2.83;78.68
34235;BME280;20500;49.856;20.290;2023-02-02T17:02:30;98747.23;;;2.79;78.48
34235;BME280;20500;49.856;20.290;2023-02-02T17:05:46;98754.36;;;2.77;78.33